createdAt,value
2022-11-01T00:00:57.338Z,11.30
2022-11-01T00:01:57.423Z,10.80
2022-11-01T00:02:57.336Z,11.70
2022-11-01T00:03:57.290Z,11.00
2022-11-01T00:04:57.283Z,12.10
2022-11-01T00:05:57.272Z,11.60
2022-11-01T00:06:57.256Z,12.20
2022-11-01T00:07:57.261Z,12.30
2022-11-01T00:08:57.230Z,14.10
2022-11-01T00:09:57.207Z,13.20
2022-11-01T00:10:57.227Z,14.90
2022-11-01T00:11:57.196Z,14.20
2022-11-01T00:12:57.209Z,14.10
2022-11-01T00:13:57.156Z,15.30
2022-11-01T00:14:57.172Z,14.90
2022-11-01T00:15:57.150Z,14.00
2022-11-01T00:16:57.122Z,14.70
2022-11-01T00:17:57.102Z,14.40
2022-11-01T00:18:57.090Z,12.90
2022-11-01T00:19:57.141Z,14.10
2022-11-01T00:20:57.070Z,12.80
2022-11-01T00:21:57.067Z,13.40
2022-11-01T00:22:57.037Z,13.70
2022-11-01T00:23:57.060Z,13.30
2022-11-01T00:24:57.008Z,13.20
2022-11-01T00:25:56.999Z,13.10
2022-11-01T00:26:56.984Z,14.40
2022-11-01T00:27:56.959Z,13.10
2022-11-01T00:28:56.979Z,13.00
2022-11-01T00:29:56.945Z,12.10
2022-11-01T00:30:56.978Z,13.60
2022-11-01T00:31:56.911Z,13.00
2022-11-01T00:32:56.908Z,13.10
2022-11-01T00:33:56.912Z,13.00
2022-11-01T00:34:56.888Z,13.30
2022-11-01T00:35:56.886Z,11.80
2022-11-01T00:36:57.023Z,12.10
2022-11-01T00:37:56.853Z,12.40
2022-11-01T00:38:56.831Z,11.90
2022-11-01T00:39:56.829Z,12.50
2022-11-01T00:40:56.789Z,12.40
2022-11-01T00:41:56.822Z,12.40
2022-11-01T00:42:56.855Z,11.30
2022-11-01T00:43:56.742Z,12.20
2022-11-01T00:44:56.730Z,11.70
2022-11-01T00:45:56.721Z,11.50
2022-11-01T00:46:56.724Z,11.20
2022-11-01T00:47:56.719Z,12.50
2022-11-01T00:48:56.686Z,12.90
2022-11-01T00:49:56.667Z,12.90
2022-11-01T00:50:56.662Z,12.20
2022-11-01T00:51:56.661Z,11.90
2022-11-01T00:52:56.675Z,12.90
2022-11-01T00:53:56.622Z,13.60
2022-11-01T00:54:56.605Z,13.50
2022-11-01T00:55:56.578Z,13.60
2022-11-01T00:56:56.601Z,13.20
2022-11-01T00:57:56.580Z,12.80
2022-11-01T00:58:56.563Z,12.20
2022-11-01T00:59:56.540Z,12.30
2022-11-01T01:00:56.588Z,12.20
2022-11-01T01:01:56.652Z,12.20
2022-11-01T01:02:56.532Z,13.10
2022-11-01T01:03:56.473Z,11.80
2022-11-01T01:04:56.484Z,12.50
2022-11-01T01:05:56.472Z,12.70
2022-11-01T01:06:56.459Z,12.00
2022-11-01T01:07:56.432Z,12.50
2022-11-01T01:08:56.433Z,11.80
2022-11-01T01:09:56.397Z,12.40
2022-11-01T01:10:56.393Z,12.70
2022-11-01T01:11:56.404Z,13.00
2022-11-01T01:12:56.388Z,12.30
2022-11-01T01:13:56.343Z,12.10
2022-11-01T01:14:56.372Z,12.70
2022-11-01T01:15:56.317Z,12.10
2022-11-01T01:16:56.349Z,11.30
2022-11-01T01:17:56.305Z,12.90
2022-11-01T01:18:56.284Z,12.90
2022-11-01T01:19:56.294Z,12.30
2022-11-01T01:20:56.249Z,12.20
2022-11-01T01:21:56.239Z,12.50
2022-11-01T01:22:56.258Z,12.80
2022-11-01T01:23:56.202Z,13.00
2022-11-01T01:24:56.246Z,11.90
2022-11-01T01:25:56.195Z,12.40
2022-11-01T01:26:56.170Z,12.50
2022-11-01T01:27:56.196Z,11.90
2022-11-01T01:28:56.167Z,12.40
2022-11-01T01:29:56.127Z,12.60
2022-11-01T01:30:56.162Z,12.60
2022-11-01T01:31:56.095Z,11.30
2022-11-01T01:32:56.095Z,11.90
2022-11-01T01:33:56.126Z,11.50
2022-11-01T01:34:56.086Z,13.20
2022-11-01T01:35:56.062Z,12.70
2022-11-01T01:36:56.672Z,12.90
2022-11-01T01:37:56.016Z,13.20
2022-11-01T01:38:56.013Z,13.90
2022-11-01T01:39:56.017Z,14.00
2022-11-01T01:40:55.979Z,13.30
2022-11-01T01:41:55.985Z,13.10
2022-11-01T01:42:55.972Z,12.60
2022-11-01T01:43:55.964Z,12.30
2022-11-01T01:44:55.969Z,12.40
2022-11-01T01:45:55.917Z,13.20
2022-11-01T01:46:55.907Z,12.80
2022-11-01T01:47:55.919Z,13.50
2022-11-01T01:48:55.887Z,13.40
2022-11-01T01:49:55.885Z,13.40
2022-11-01T01:50:55.880Z,13.20
2022-11-01T01:51:55.827Z,13.50
2022-11-01T01:52:55.822Z,13.50
2022-11-01T01:53:55.829Z,13.10
2022-11-01T01:54:55.839Z,12.40
2022-11-01T01:55:55.774Z,12.80
2022-11-01T01:56:55.763Z,13.60
2022-11-01T01:57:55.755Z,13.30
2022-11-01T01:58:55.789Z,12.60
2022-11-01T01:59:55.719Z,12.90
2022-11-01T02:00:55.768Z,12.60
2022-11-01T02:01:55.821Z,13.20
2022-11-01T02:02:55.686Z,13.40
2022-11-01T02:03:55.680Z,13.20
2022-11-01T02:04:55.701Z,13.20
2022-11-01T02:05:55.658Z,12.40
2022-11-01T02:06:55.625Z,12.90
2022-11-01T02:07:55.615Z,12.50
2022-11-01T02:08:55.606Z,13.30
2022-11-01T02:09:55.616Z,14.00
2022-11-01T02:10:55.574Z,14.10
2022-11-01T02:11:55.569Z,13.30
2022-11-01T02:12:55.559Z,13.30
2022-11-01T02:13:55.562Z,13.40
2022-11-01T02:14:55.527Z,12.40
2022-11-01T02:15:55.522Z,13.10
2022-11-01T02:16:55.501Z,12.00
2022-11-01T02:17:55.491Z,12.60
2022-11-01T02:18:55.508Z,13.30
2022-11-01T02:19:55.467Z,13.30
2022-11-01T02:20:55.450Z,13.10
2022-11-01T02:21:55.450Z,13.30
2022-11-01T02:22:55.422Z,13.20
2022-11-01T02:23:55.405Z,13.20
2022-11-01T02:24:55.411Z,13.20
2022-11-01T02:25:55.375Z,13.30
2022-11-01T02:26:55.400Z,13.20
2022-11-01T02:27:55.352Z,13.80
2022-11-01T02:28:55.327Z,12.90
2022-11-01T02:29:55.326Z,13.90
2022-11-01T02:30:55.315Z,13.60
2022-11-01T02:31:55.314Z,13.00
2022-11-01T02:32:55.325Z,13.90
2022-11-01T02:33:55.282Z,13.50
2022-11-01T02:34:55.291Z,12.90
2022-11-01T02:35:55.254Z,13.30
2022-11-01T02:36:55.264Z,13.40
2022-11-01T02:37:55.212Z,12.20
2022-11-01T02:38:55.203Z,14.00
2022-11-01T02:39:55.193Z,13.10
2022-11-01T02:40:55.201Z,12.10
2022-11-01T02:41:55.197Z,12.60
2022-11-01T02:42:55.158Z,12.90
2022-11-01T02:43:55.131Z,13.00
2022-11-01T02:44:55.114Z,13.00
2022-11-01T02:45:55.126Z,12.30
2022-11-01T02:46:55.087Z,13.00
2022-11-01T02:47:55.081Z,12.50
2022-11-01T02:48:55.077Z,12.50
2022-11-01T02:49:55.080Z,13.20
2022-11-01T02:50:55.039Z,12.50
2022-11-01T02:51:55.045Z,12.20
2022-11-01T02:52:55.044Z,12.10
2022-11-01T02:53:55.001Z,13.20
2022-11-01T02:54:55.000Z,12.70
2022-11-01T02:55:54.991Z,11.30
2022-11-01T02:56:54.959Z,12.80
2022-11-01T02:57:54.949Z,12.70
2022-11-01T02:58:54.935Z,13.00
2022-11-01T02:59:54.927Z,12.00
2022-11-01T03:00:54.954Z,12.00
2022-11-01T03:01:55.005Z,12.40
2022-11-01T03:02:54.883Z,12.20
2022-11-01T03:03:54.879Z,12.60
2022-11-01T03:04:54.850Z,11.60
2022-11-01T03:05:54.863Z,11.60
2022-11-01T03:06:54.843Z,12.90
2022-11-01T03:07:54.812Z,11.40
2022-11-01T03:08:54.790Z,12.40
2022-11-01T03:09:54.782Z,12.60
2022-11-01T03:10:54.788Z,12.60
2022-11-01T03:11:54.751Z,12.70
2022-11-01T03:12:54.739Z,12.80
2022-11-01T03:13:54.735Z,11.80
2022-11-01T03:14:54.726Z,12.10
2022-11-01T03:15:54.697Z,12.30
2022-11-01T03:16:54.754Z,12.40
2022-11-01T03:17:54.674Z,11.90
2022-11-01T03:18:54.669Z,12.40
2022-11-01T03:19:54.661Z,12.40
2022-11-01T03:20:54.628Z,11.80
2022-11-01T03:21:54.637Z,12.00
2022-11-01T03:22:54.636Z,12.30
2022-11-01T03:23:54.597Z,12.30
2022-11-01T03:24:54.592Z,12.80
2022-11-01T03:25:54.577Z,12.50
2022-11-01T03:26:54.572Z,13.60
2022-11-01T03:27:54.565Z,13.60
2022-11-01T03:29:54.515Z,13.20
2022-11-01T03:30:54.502Z,14.20
2022-11-01T03:31:54.577Z,12.90
2022-11-01T03:32:54.487Z,13.20
2022-11-01T03:33:54.470Z,13.30
2022-11-01T03:34:54.467Z,13.40
2022-11-01T03:35:54.464Z,13.70
2022-11-01T03:36:54.426Z,12.20
2022-11-01T03:37:54.437Z,13.20
2022-11-01T03:38:54.401Z,13.20
2022-11-01T03:39:54.373Z,11.90
2022-11-01T03:40:54.384Z,12.50
2022-11-01T03:41:54.351Z,13.30
2022-11-01T03:42:54.358Z,13.30
2022-11-01T03:43:54.361Z,12.50
2022-11-01T03:44:54.311Z,12.80
2022-11-01T03:45:54.291Z,13.20
2022-11-01T03:46:54.323Z,13.70
2022-11-01T03:47:54.265Z,12.50
2022-11-01T03:48:54.310Z,12.50
2022-11-01T03:49:54.251Z,12.00
2022-11-01T03:50:54.236Z,11.90
2022-11-01T03:51:54.218Z,13.00
2022-11-01T03:52:54.237Z,13.40
2022-11-01T03:53:54.212Z,13.50
2022-11-01T03:54:54.182Z,12.60
2022-11-01T03:55:54.171Z,12.90
2022-11-01T03:56:54.157Z,12.70
2022-11-01T03:57:54.129Z,12.60
2022-11-01T03:58:54.667Z,12.60
2022-11-01T03:59:54.118Z,12.50
2022-11-01T04:00:54.135Z,13.30
2022-11-01T04:01:54.380Z,14.00
2022-11-01T04:02:54.070Z,12.50
2022-11-01T04:03:54.078Z,13.50
2022-11-01T04:04:54.047Z,13.10
2022-11-01T04:05:54.050Z,12.60
2022-11-01T04:06:54.031Z,13.20
2022-11-01T04:07:54.004Z,12.90
2022-11-01T04:08:54.016Z,13.00
2022-11-01T04:09:53.971Z,12.90
2022-11-01T04:10:53.983Z,13.20
2022-11-01T04:11:53.974Z,13.20
2022-11-01T04:12:53.948Z,13.30
2022-11-01T04:13:53.920Z,12.80
2022-11-01T04:14:53.908Z,12.70
2022-11-01T04:15:53.930Z,12.80
2022-11-01T04:16:53.892Z,12.30
2022-11-01T04:17:53.883Z,12.00
2022-11-01T04:18:53.905Z,12.20
2022-11-01T04:19:53.845Z,12.30
2022-11-01T04:20:53.842Z,12.80
2022-11-01T04:21:53.842Z,12.40
2022-11-01T04:22:53.800Z,12.00
2022-11-01T04:23:53.805Z,12.00
2022-11-01T04:24:53.783Z,12.40
2022-11-01T04:25:53.757Z,11.50
2022-11-01T04:26:53.777Z,11.90
2022-11-01T04:27:53.737Z,11.80
2022-11-01T04:28:53.724Z,11.60
2022-11-01T04:29:53.724Z,11.90
2022-11-01T04:30:53.694Z,11.20
2022-11-01T04:31:53.716Z,10.50
2022-11-01T04:32:53.671Z,10.50
2022-11-01T04:33:53.665Z,11.50
2022-11-01T04:34:53.689Z,11.60
2022-11-01T04:35:53.632Z,11.00
2022-11-01T04:36:53.606Z,11.00
2022-11-01T04:37:53.593Z,10.70
2022-11-01T04:38:53.597Z,10.70
2022-11-01T04:39:53.574Z,10.80
2022-11-01T04:40:53.589Z,10.80
2022-11-01T04:41:53.547Z,10.30
2022-11-01T04:42:53.549Z,10.30
2022-11-01T04:43:53.512Z,10.40
2022-11-01T04:44:53.526Z,10.30
2022-11-01T04:45:53.525Z,10.00
2022-11-01T04:46:53.481Z,10.70
2022-11-01T04:47:53.472Z,9.70
2022-11-01T04:48:53.462Z,9.60
2022-11-01T04:49:53.441Z,10.40
2022-11-01T04:50:53.462Z,9.90
2022-11-01T04:51:53.423Z,9.50
2022-11-01T04:52:53.388Z,8.80
2022-11-01T04:53:53.397Z,8.40
2022-11-01T04:54:53.365Z,9.20
2022-11-01T04:55:53.392Z,8.90
2022-11-01T04:56:53.344Z,8.40
2022-11-01T04:57:53.324Z,8.70
2022-11-01T04:58:53.372Z,8.00
2022-11-01T04:59:53.325Z,8.00
2022-11-01T05:00:53.338Z,7.40
2022-11-01T05:01:53.432Z,7.80
2022-11-01T05:02:53.255Z,7.80
2022-11-01T05:03:53.239Z,7.60
2022-11-01T05:04:53.247Z,8.30
2022-11-01T05:05:53.226Z,7.40
2022-11-01T05:06:53.226Z,7.80
2022-11-01T05:07:53.252Z,7.20
2022-11-01T05:08:53.183Z,7.40
2022-11-01T05:09:53.177Z,7.10
2022-11-01T05:10:53.170Z,7.20
2022-11-01T05:11:53.147Z,7.70
2022-11-01T05:12:53.149Z,7.20
2022-11-01T05:13:53.136Z,8.00
2022-11-01T05:14:56.704Z,6.70
2022-11-01T05:16:17.886Z,7.40
2022-11-01T05:16:53.081Z,6.80
2022-11-01T05:17:53.082Z,6.90
2022-11-01T05:18:53.042Z,6.70
2022-11-01T05:19:53.033Z,6.60
2022-11-01T05:20:53.013Z,6.30
2022-11-01T05:21:53.028Z,6.20
2022-11-01T05:22:53.009Z,6.80
2022-11-01T05:23:52.979Z,6.20
2022-11-01T05:24:52.975Z,6.10
2022-11-01T05:25:52.953Z,6.10
2022-11-01T05:26:52.982Z,6.40
2022-11-01T05:27:52.952Z,6.30
2022-11-01T05:28:52.936Z,5.70
2022-11-01T05:29:52.905Z,5.70
2022-11-01T05:30:52.897Z,5.20
2022-11-01T05:31:52.890Z,5.30
2022-11-01T05:32:52.853Z,5.80
2022-11-01T05:33:52.848Z,4.50
2022-11-01T05:34:52.836Z,4.60
2022-11-01T05:35:52.843Z,4.90
2022-11-01T05:36:52.830Z,3.90
2022-11-01T05:37:52.794Z,4.30
2022-11-01T05:38:52.776Z,4.20
2022-11-01T05:39:52.782Z,4.00
2022-11-01T05:40:52.745Z,3.70
2022-11-01T05:41:53.830Z,3.90
2022-11-01T05:42:52.727Z,3.70
2022-11-01T05:43:52.781Z,3.70
2022-11-01T05:44:52.701Z,3.40
2022-11-01T05:45:52.706Z,3.30
2022-11-01T05:46:52.696Z,3.40
2022-11-01T05:47:52.666Z,3.20
2022-11-01T05:48:52.670Z,2.90
2022-11-01T05:49:52.637Z,3.30
2022-11-01T05:50:52.613Z,3.00
2022-11-01T05:51:52.620Z,2.60
2022-11-01T05:52:52.612Z,2.80
2022-11-01T05:53:52.611Z,2.70
2022-11-01T05:54:52.554Z,2.10
2022-11-01T05:55:52.578Z,2.50
2022-11-01T05:56:52.531Z,2.40
2022-11-01T05:57:52.532Z,2.10
2022-11-01T05:58:52.544Z,2.60
2022-11-01T05:59:52.514Z,2.60
2022-11-01T06:00:52.484Z,1.90
2022-11-01T06:01:52.574Z,1.90
2022-11-01T06:02:52.454Z,2.50
2022-11-01T06:03:52.482Z,2.10
2022-11-01T06:04:52.433Z,2.30
2022-11-01T06:05:52.423Z,1.70
2022-11-01T06:06:52.416Z,1.80
2022-11-01T06:07:52.404Z,2.30
2022-11-01T06:08:52.419Z,1.60
2022-11-01T06:09:52.393Z,1.80
2022-11-01T06:10:52.378Z,2.50
2022-11-01T06:11:52.406Z,2.10
2022-11-01T06:12:52.315Z,2.50
2022-11-01T06:13:52.331Z,1.90
2022-11-01T06:14:52.330Z,1.80
2022-11-01T06:15:52.288Z,1.90
2022-11-01T06:16:52.290Z,2.30
2022-11-01T06:17:52.267Z,2.10
2022-11-01T06:18:52.235Z,2.00
2022-11-01T06:19:52.285Z,2.20
2022-11-01T06:20:52.242Z,2.10
2022-11-01T06:21:52.208Z,2.00
2022-11-01T06:22:52.198Z,2.00
2022-11-01T06:23:52.191Z,2.30
2022-11-01T06:24:52.168Z,2.10
2022-11-01T06:25:52.165Z,1.80
2022-11-01T06:26:52.135Z,1.90
2022-11-01T06:27:52.144Z,1.80
2022-11-01T06:28:52.115Z,2.40
2022-11-01T06:29:52.121Z,2.30
2022-11-01T06:30:52.136Z,1.80
2022-11-01T06:31:52.075Z,2.30
2022-11-01T06:32:52.072Z,1.80
2022-11-01T06:33:52.057Z,2.20
2022-11-01T06:34:52.048Z,1.90
2022-11-01T06:35:52.023Z,2.30
2022-11-01T06:36:52.008Z,1.80
2022-11-01T06:37:51.992Z,2.00
2022-11-01T06:38:52.017Z,1.80
2022-11-01T06:39:51.985Z,2.40
2022-11-01T06:40:51.957Z,1.90
2022-11-01T06:41:51.945Z,1.90
2022-11-01T06:42:51.922Z,1.90
2022-11-01T06:43:51.936Z,1.60
2022-11-01T06:44:51.928Z,1.70
2022-11-01T06:45:51.887Z,1.90
2022-11-01T06:46:51.897Z,1.70
2022-11-01T06:47:51.860Z,1.70
2022-11-01T06:48:51.849Z,2.00
2022-11-01T06:49:51.841Z,1.70
2022-11-01T06:50:51.846Z,1.80
2022-11-01T06:51:51.831Z,2.10
2022-11-01T06:52:51.794Z,1.70
2022-11-01T06:53:51.777Z,1.70
2022-11-01T06:54:51.774Z,1.80
2022-11-01T06:55:51.823Z,1.80
2022-11-01T06:56:51.736Z,1.60
2022-11-01T06:57:51.731Z,1.60
2022-11-01T06:58:51.709Z,1.70
2022-11-01T06:59:51.744Z,1.50
2022-11-01T07:00:51.873Z,2.40
2022-11-01T07:01:51.901Z,10.20
2022-11-01T07:02:51.709Z,8.20
2022-11-01T07:03:51.764Z,4.70
2022-11-01T07:04:51.627Z,5.20
2022-11-01T07:05:51.642Z,5.90
2022-11-01T07:06:51.614Z,2.40
2022-11-01T07:07:51.677Z,2.10
2022-11-01T07:08:51.578Z,2.30
2022-11-01T07:09:51.569Z,2.60
2022-11-01T07:10:51.621Z,2.00
2022-11-01T07:11:51.569Z,3.20
2022-11-01T07:12:51.553Z,5.70
2022-11-01T07:13:51.521Z,3.90
2022-11-01T07:14:51.517Z,3.40
2022-11-01T07:15:51.511Z,2.40
2022-11-01T07:16:51.480Z,1.80
2022-11-01T07:17:51.708Z,3.10
2022-11-01T07:18:51.459Z,2.40
2022-11-01T07:19:51.423Z,2.70
2022-11-01T07:20:51.431Z,2.00
2022-11-01T07:21:51.416Z,2.10
2022-11-01T07:22:51.427Z,2.30
2022-11-01T07:23:51.400Z,2.30
2022-11-01T07:24:51.368Z,2.20
2022-11-01T07:25:51.364Z,2.70
2022-11-01T07:26:51.362Z,2.00
2022-11-01T07:27:51.365Z,2.30
2022-11-01T07:28:51.315Z,1.90
2022-11-01T07:29:51.333Z,1.90
2022-11-01T07:30:51.274Z,1.60
2022-11-01T07:31:51.303Z,1.60
2022-11-01T07:32:51.260Z,1.80
2022-11-01T07:33:51.265Z,1.50
2022-11-01T07:34:51.248Z,1.50
2022-11-01T07:35:51.277Z,1.60
2022-11-01T07:36:51.233Z,2.20
2022-11-01T07:37:51.217Z,1.60
2022-11-01T07:38:51.181Z,1.40
2022-11-01T07:39:51.176Z,2.00
2022-11-01T07:40:51.159Z,1.30
2022-11-01T07:41:51.184Z,1.50
2022-11-01T07:42:51.135Z,1.60
2022-11-01T07:43:51.117Z,1.60
2022-11-01T07:44:51.100Z,1.30
2022-11-01T07:45:51.112Z,1.60
2022-11-01T07:46:51.087Z,1.80
2022-11-01T07:47:51.076Z,1.30
2022-11-01T07:48:51.054Z,1.80
2022-11-01T07:49:51.045Z,1.60
2022-11-01T07:50:51.035Z,1.60
2022-11-01T07:51:51.002Z,1.30
2022-11-01T07:52:50.994Z,1.40
2022-11-01T07:53:51.041Z,1.80
2022-11-01T07:54:50.966Z,1.40
2022-11-01T07:55:50.961Z,1.50
2022-11-01T07:56:50.980Z,1.90
2022-11-01T07:57:50.933Z,1.60
2022-11-01T07:58:50.938Z,1.90
2022-11-01T07:59:50.901Z,1.50
2022-11-01T08:00:50.918Z,1.90
2022-11-01T08:01:50.954Z,1.90
2022-11-01T08:02:50.911Z,2.60
2022-11-01T08:03:50.882Z,2.10
2022-11-01T08:04:50.839Z,2.40
2022-11-01T08:05:50.863Z,2.40
2022-11-01T08:06:52.199Z,2.00
2022-11-01T08:07:50.805Z,1.80
2022-11-01T08:08:50.776Z,1.40
2022-11-01T08:09:50.774Z,1.80
2022-11-01T08:10:50.774Z,3.00
2022-11-01T08:11:50.770Z,2.00
2022-11-01T08:12:50.745Z,2.00
2022-11-01T08:13:50.716Z,1.70
2022-11-01T08:14:50.746Z,1.50
2022-11-01T08:15:50.691Z,2.30
2022-11-01T08:16:50.680Z,3.80
2022-11-01T08:17:50.677Z,1.70
2022-11-01T08:18:50.667Z,2.30
2022-11-01T08:19:50.644Z,3.20
2022-11-01T08:20:50.651Z,1.90
2022-11-01T08:21:50.615Z,1.60
2022-11-01T08:22:50.603Z,1.80
2022-11-01T08:23:50.621Z,3.20
2022-11-01T08:24:50.621Z,2.10
2022-11-01T08:25:50.550Z,1.70
2022-11-01T08:26:50.530Z,2.30
2022-11-01T08:27:50.560Z,2.00
2022-11-01T08:28:50.505Z,2.90
2022-11-01T08:29:50.489Z,1.90
2022-11-01T08:30:50.521Z,2.80
2022-11-01T08:31:50.482Z,1.90
2022-11-01T08:32:50.470Z,2.40
2022-11-01T08:33:50.475Z,3.70
2022-11-01T08:34:50.428Z,2.20
2022-11-01T08:35:51.014Z,2.10
2022-11-01T08:36:50.421Z,2.40
2022-11-01T08:37:50.393Z,2.10
2022-11-01T08:38:50.370Z,2.50
2022-11-01T08:39:50.374Z,1.70
2022-11-01T08:40:50.370Z,1.80
2022-11-01T08:41:50.486Z,1.80
2022-11-01T08:42:50.371Z,1.80
2022-11-01T08:43:50.316Z,1.40
2022-11-01T08:44:50.348Z,1.30
2022-11-01T08:45:50.306Z,2.00
2022-11-01T08:46:50.273Z,1.40
2022-11-01T08:47:50.243Z,1.60
2022-11-01T08:48:50.245Z,1.40
2022-11-01T08:49:50.314Z,1.40
2022-11-01T08:50:50.246Z,1.40
2022-11-01T08:51:50.222Z,1.40
2022-11-01T08:52:50.277Z,1.70
2022-11-01T08:53:50.179Z,1.30
2022-11-01T08:54:50.229Z,1.80
2022-11-01T08:55:50.160Z,1.30
2022-11-01T08:56:50.167Z,1.50
2022-11-01T08:57:50.141Z,1.40
2022-11-01T08:58:50.176Z,1.70
2022-11-01T08:59:50.104Z,1.80
2022-11-01T09:00:50.178Z,2.10
2022-11-01T09:01:50.192Z,1.90
2022-11-01T09:02:50.078Z,1.90
2022-11-01T09:03:50.059Z,2.00
2022-11-01T09:04:50.034Z,2.40
2022-11-01T09:05:50.037Z,3.90
2022-11-01T09:06:50.024Z,2.50
2022-11-01T09:07:50.034Z,4.20
2022-11-01T09:08:49.996Z,2.80
2022-11-01T09:09:49.988Z,1.90
2022-11-01T09:10:49.951Z,2.50
2022-11-01T09:11:49.961Z,4.50
2022-11-01T09:12:49.953Z,1.90
2022-11-01T09:13:49.966Z,1.70
2022-11-01T09:14:49.906Z,2.20
2022-11-01T09:15:49.869Z,2.40
2022-11-01T09:16:49.876Z,2.00
2022-11-01T09:17:49.889Z,1.80
2022-11-01T09:18:49.873Z,2.00
2022-11-01T09:19:49.835Z,1.40
2022-11-01T09:20:49.819Z,1.40
2022-11-01T09:21:49.836Z,2.00
2022-11-01T09:22:49.819Z,1.60
2022-11-01T09:23:49.822Z,1.40
2022-11-01T09:24:49.772Z,1.70
2022-11-01T09:25:49.759Z,1.90
2022-11-01T09:26:49.764Z,2.50
2022-11-01T09:27:49.729Z,1.50
2022-11-01T09:28:49.745Z,1.50
2022-11-01T09:29:52.017Z,2.10
2022-11-01T09:31:01.041Z,4.20
2022-11-01T09:31:49.682Z,1.60
2022-11-01T09:32:49.657Z,1.50
2022-11-01T09:33:49.686Z,1.50
2022-11-01T09:34:49.634Z,1.50
2022-11-01T09:35:52.123Z,1.50
2022-11-01T09:36:49.596Z,1.50
2022-11-01T09:37:49.611Z,1.50
2022-11-01T09:38:49.572Z,2.20
2022-11-01T09:39:49.548Z,1.50
2022-11-01T09:40:49.594Z,1.70
2022-11-01T09:41:49.527Z,1.60
2022-11-01T09:42:49.558Z,1.70
2022-11-01T09:43:49.523Z,1.40
2022-11-01T09:44:49.677Z,1.40
2022-11-01T09:45:49.484Z,1.40
2022-11-01T09:46:49.466Z,1.40
2022-11-01T09:47:50.016Z,1.30
2022-11-01T09:48:49.461Z,1.70
2022-11-01T09:49:49.477Z,1.70
2022-11-01T09:50:49.440Z,1.70
2022-11-01T09:51:49.429Z,2.80
2022-11-01T09:52:49.408Z,2.30
2022-11-01T09:53:49.379Z,2.00
2022-11-01T09:54:49.370Z,1.40
2022-11-01T09:55:49.363Z,1.40
2022-11-01T09:56:49.333Z,1.90
2022-11-01T09:57:49.344Z,1.50
2022-11-01T09:58:49.315Z,1.80
2022-11-01T09:59:49.315Z,1.30
2022-11-01T10:00:49.313Z,1.70
2022-11-01T10:01:49.394Z,1.60
2022-11-01T10:02:49.259Z,1.60
2022-11-01T10:03:49.252Z,1.30
2022-11-01T10:04:49.220Z,1.50
2022-11-01T10:05:49.204Z,1.30
2022-11-01T10:06:49.209Z,1.80
2022-11-01T10:07:49.214Z,1.50
2022-11-01T10:08:49.169Z,1.70
2022-11-01T10:09:49.159Z,1.60
2022-11-01T10:10:49.149Z,1.80
2022-11-01T10:11:49.138Z,1.60
2022-11-01T10:12:49.118Z,1.60
2022-11-01T10:13:49.122Z,1.10
2022-11-01T10:14:49.091Z,1.50
2022-11-01T10:15:49.075Z,1.50
2022-11-01T10:16:49.052Z,1.30
2022-11-01T10:18:02.557Z,1.60
2022-11-01T10:18:49.101Z,1.50
2022-11-01T10:19:49.046Z,1.70
2022-11-01T10:20:49.035Z,1.20
2022-11-01T10:21:49.005Z,1.40
2022-11-01T10:22:49.002Z,1.10
2022-11-01T10:23:48.998Z,1.00
2022-11-01T10:24:48.965Z,1.30
2022-11-01T10:25:48.974Z,1.00
2022-11-01T10:26:48.951Z,1.10
2022-11-01T10:27:48.909Z,1.20
2022-11-01T10:28:48.906Z,1.00
2022-11-01T10:29:48.908Z,1.20
2022-11-01T10:30:48.900Z,1.50
2022-11-01T10:31:48.862Z,1.60
2022-11-01T10:32:48.874Z,1.20
2022-11-01T10:33:48.842Z,1.30
2022-11-01T10:34:48.853Z,1.30
2022-11-01T10:35:48.801Z,1.20
2022-11-01T10:36:48.801Z,1.50
2022-11-01T10:38:03.910Z,1.20
2022-11-01T10:39:23.494Z,1.10
2022-11-01T10:40:00.295Z,1.40
2022-11-01T10:40:48.779Z,1.10
2022-11-01T10:41:48.741Z,1.10
2022-11-01T10:42:48.719Z,1.70
2022-11-01T10:43:48.705Z,1.40
2022-11-01T10:44:48.680Z,1.00
2022-11-01T10:45:48.727Z,1.10
2022-11-01T10:46:48.687Z,1.20
2022-11-01T10:47:48.675Z,1.30
2022-11-01T10:48:48.649Z,1.10
2022-11-01T10:50:48.626Z,1.20
2022-11-01T10:51:48.594Z,1.40
2022-11-01T10:52:48.603Z,1.30
2022-11-01T10:53:48.583Z,1.40
2022-11-01T10:54:48.605Z,1.10
2022-11-01T10:55:48.592Z,1.70
2022-11-01T10:56:48.550Z,1.40
2022-11-01T10:57:48.523Z,1.20
2022-11-01T10:58:48.539Z,1.10
2022-11-01T10:59:48.492Z,1.20
2022-11-01T11:00:48.605Z,1.30
2022-11-01T11:01:48.596Z,1.20
2022-11-01T11:02:48.466Z,1.50
2022-11-01T11:03:48.464Z,1.00
2022-11-01T11:04:48.401Z,1.00
2022-11-01T11:05:48.394Z,1.40
2022-11-01T11:06:48.405Z,1.30
2022-11-01T11:07:48.420Z,1.20
2022-11-01T11:08:48.392Z,1.10
2022-11-01T11:09:48.400Z,1.20
2022-11-01T11:10:48.373Z,0.90
2022-11-01T11:11:48.386Z,1.40
2022-11-01T11:12:48.334Z,1.10
2022-11-01T11:13:48.323Z,1.20
2022-11-01T11:14:48.291Z,1.30
2022-11-01T11:15:48.284Z,1.20
2022-11-01T11:16:48.261Z,0.90
2022-11-01T11:17:48.243Z,1.10
2022-11-01T11:18:48.259Z,1.20
2022-11-01T11:19:48.226Z,1.30
2022-11-01T11:20:48.208Z,1.20
2022-11-01T11:21:48.185Z,1.40
2022-11-01T11:22:48.195Z,1.30
2022-11-01T11:23:48.177Z,1.20
2022-11-01T11:24:48.152Z,1.10
2022-11-01T11:25:48.154Z,1.10
2022-11-01T11:26:51.303Z,1.50
2022-11-01T11:27:48.117Z,1.10
2022-11-01T11:28:48.092Z,1.30
2022-11-01T11:29:48.090Z,1.30
2022-11-01T11:30:48.099Z,1.60
2022-11-01T11:31:48.064Z,1.30
2022-11-01T11:32:48.037Z,1.00
2022-11-01T11:33:48.030Z,1.50
2022-11-01T11:34:48.022Z,1.00
2022-11-01T11:35:47.997Z,1.40
2022-11-01T11:36:48.007Z,1.30
2022-11-01T11:37:47.963Z,1.10
2022-11-01T11:38:47.972Z,1.10
2022-11-01T11:39:47.964Z,1.10
2022-11-01T11:40:47.964Z,1.10
2022-11-01T11:41:47.967Z,1.40
2022-11-01T11:42:47.914Z,1.10
2022-11-01T11:43:47.988Z,1.30
2022-11-01T11:44:51.885Z,1.00
2022-11-01T11:45:47.899Z,1.30
2022-11-01T11:46:47.895Z,1.30
2022-11-01T11:47:47.837Z,1.20
2022-11-01T11:48:47.820Z,1.30
2022-11-01T11:49:47.863Z,1.20
2022-11-01T11:50:47.842Z,1.00
2022-11-01T11:51:47.782Z,1.30
2022-11-01T11:52:47.773Z,1.50
2022-11-01T11:53:47.753Z,1.10
2022-11-01T11:54:47.779Z,1.00
2022-11-01T11:55:47.748Z,1.00
2022-11-01T11:56:47.756Z,1.00
2022-11-01T11:57:47.721Z,1.60
2022-11-01T11:58:47.689Z,1.20
2022-11-01T11:59:47.682Z,1.10
2022-11-01T12:00:47.692Z,1.10
2022-11-01T12:01:47.756Z,1.60
2022-11-01T12:02:47.873Z,1.30
2022-11-01T12:03:47.629Z,1.20
2022-11-01T12:04:47.627Z,1.20
2022-11-01T12:05:47.648Z,1.40
2022-11-01T12:06:47.594Z,1.50
2022-11-01T12:07:47.583Z,0.80
2022-11-01T12:08:47.561Z,0.80
2022-11-01T12:09:47.535Z,1.00
2022-11-01T12:10:47.551Z,1.60
2022-11-01T12:11:47.569Z,1.00
2022-11-01T12:12:47.529Z,1.10
2022-11-01T12:13:47.545Z,1.10
2022-11-01T12:14:47.484Z,1.50
2022-11-01T12:15:47.471Z,1.10
2022-11-01T12:16:47.442Z,1.10
2022-11-01T12:17:47.430Z,1.20
2022-11-01T12:18:47.446Z,1.10
2022-11-01T12:19:47.413Z,1.00
2022-11-01T12:20:47.382Z,1.70
2022-11-01T12:21:47.406Z,1.70
2022-11-01T12:22:47.380Z,1.00
2022-11-01T12:23:47.375Z,1.00
2022-11-01T12:24:47.340Z,0.90
2022-11-01T12:25:47.360Z,1.30
2022-11-01T12:26:47.321Z,1.10
2022-11-01T12:27:47.336Z,1.00
2022-11-01T12:28:47.304Z,1.30
2022-11-01T12:29:47.297Z,1.40
2022-11-01T12:30:47.255Z,1.60
2022-11-01T12:31:47.281Z,1.00
2022-11-01T12:32:47.221Z,1.00
2022-11-01T12:33:47.248Z,1.10
2022-11-01T12:34:47.190Z,1.60
2022-11-01T12:35:47.220Z,1.20
2022-11-01T12:36:47.181Z,1.00
2022-11-01T12:37:47.161Z,1.20
2022-11-01T12:38:47.183Z,1.20
2022-11-01T12:39:47.160Z,1.20
2022-11-01T12:40:47.176Z,1.30
2022-11-01T12:41:47.119Z,1.60
2022-11-01T12:42:47.135Z,1.40
2022-11-01T12:43:47.133Z,1.20
2022-11-01T12:44:47.064Z,1.00
2022-11-01T12:45:47.097Z,1.00
2022-11-01T12:46:47.073Z,2.00
2022-11-01T12:47:47.034Z,1.00
2022-11-01T12:48:47.060Z,1.30
2022-11-01T12:49:47.041Z,1.00
2022-11-01T12:50:47.004Z,0.90
2022-11-01T12:51:46.964Z,1.30
2022-11-01T12:52:46.975Z,1.20
2022-11-01T12:53:46.939Z,1.60
2022-11-01T12:54:46.941Z,1.50
2022-11-01T12:55:46.932Z,1.10
2022-11-01T12:56:46.902Z,1.20
2022-11-01T12:57:46.944Z,1.30
2022-11-01T12:58:46.880Z,1.30
2022-11-01T12:59:46.863Z,1.20
2022-11-01T13:00:46.964Z,1.10
2022-11-01T13:01:46.959Z,1.60
2022-11-01T13:02:46.819Z,1.30
2022-11-01T13:03:46.806Z,1.20
2022-11-01T13:04:46.816Z,1.40
2022-11-01T13:05:46.816Z,1.40
2022-11-01T13:06:46.776Z,1.10
2022-11-01T13:07:46.751Z,1.20
2022-11-01T13:08:46.776Z,1.20
2022-11-01T13:09:46.754Z,1.80
2022-11-01T13:10:46.719Z,1.40